Time;durP1;ratioP1;P1;durP2;ratioP2;P2;SDS_P1;SDS_P2;PMS_P1;PMS_P2;Temp;Humidity;BMP_temperature;BMP_pressure;BME280_temperature;BME280_humidity;BME280_pressure;Samples;Min_cycle;Max_cycle;Signal;HPM_P1;HPM_P2
2023/07/10 00:01:04;;;;;;;6.85;4.60;;;;;;;17.16;100.00;97897.22;5131245;27;20023;-74
2023/07/10 00:03:30;;;;;;;10.13;4.57;;;;;;;17.07;100.00;97895.28;5131107;27;20031;-73
2023/07/10 00:05:56;;;;;;;5.88;4.55;;;;;;;17.05;100.00;97899.94;5130727;27;20530;-73
2023/07/10 00:08:22;;;;;;;10.75;4.50;;;;;;;17.01;100.00;97883.09;5132252;27;20497;-73
2023/07/10 00:10:48;;;;;;;6.10;4.20;;;;;;;16.98;100.00;97888.75;5131880;27;20031;-73
2023/07/10 00:13:14;;;;;;;6.60;4.25;;;;;;;16.83;100.00;97884.63;5132197;27;20031;-73
2023/07/10 00:15:40;;;;;;;9.52;4.53;;;;;;;16.89;100.00;97886.00;5130832;27;20478;-73
2023/07/10 00:18:23;;;;;;;8.20;4.43;;;;;;;16.96;100.00;97884.47;5130219;27;20482;-74
2023/07/10 00:20:50;;;;;;;5.18;4.07;;;;;;;16.98;100.00;97888.75;5130472;27;20470;-74
2023/07/10 00:23:16;;;;;;;5.88;4.15;;;;;;;16.89;100.00;97878.72;5131973;27;20462;-74
2023/07/10 00:25:42;;;;;;;6.75;4.20;;;;;;;16.93;100.00;97879.31;5130656;27;20041;-74
2023/07/10 00:28:19;;;;;;;7.03;4.95;;;;;;;16.88;100.00;97885.13;5113470;27;20027;-74
2023/07/10 00:30:46;;;;;;;5.95;4.32;;;;;;;16.71;100.00;97883.78;5130463;27;20092;-74
2023/07/10 00:33:11;;;;;;;6.07;4.32;;;;;;;16.73;100.00;97895.31;5123531;27;20027;-74
2023/07/10 00:35:37;;;;;;;8.00;4.05;;;;;;;16.70;100.00;97882.06;5115008;27;20026;-74
2023/07/10 00:38:25;;;;;;;7.75;4.53;;;;;;;16.80;100.00;97893.84;5129243;27;20080;-74
2023/07/10 00:40:52;;;;;;;7.68;4.60;;;;;;;16.83;100.00;97889.19;5130300;28;20015;-73
2023/07/10 00:43:40;;;;;;;7.80;4.80;;;;;;;16.82;100.00;97893.72;5113400;28;20030;-74
2023/07/10 00:46:16;;;;;;;6.57;4.43;;;;;;;16.72;100.00;97893.63;5130234;27;20156;-74
2023/07/10 00:48:47;;;;;;;7.13;4.45;;;;;;;16.67;100.00;97895.81;5113193;28;20058;-72
2023/07/10 00:51:22;;;;;;;6.63;3.97;;;;;;;16.62;100.00;97895.34;5130336;27;20080;-72
2023/07/10 00:53:48;;;;;;;6.55;4.28;;;;;;;16.60;100.00;97905.41;5130484;27;20027;-74
2023/07/10 00:56:17;;;;;;;7.10;4.63;;;;;;;16.60;100.00;97893.75;5131338;27;20402;-73
2023/07/10 00:58:45;;;;;;;9.93;4.88;;;;;;;16.59;100.00;97897.41;5130311;27;20027;-73
2023/07/10 01:01:14;;;;;;;11.88;4.38;;;;;;;16.57;100.00;97889.47;5113090;28;20098;-73
2023/07/10 01:03:41;;;;;;;10.18;4.60;;;;;;;16.54;100.00;97891.50;5113281;28;20066;-73
2023/07/10 01:06:30;;;;;;;6.18;4.40;;;;;;;16.47;100.00;97888.44;5130024;28;20368;-73
2023/07/10 01:09:03;;;;;;;8.43;5.18;;;;;;;16.42;100.00;97885.25;5119848;28;20027;-73
2023/07/10 01:11:29;;;;;;;7.13;4.78;;;;;;;16.37;100.00;97882.03;5107398;28;20054;-73
2023/07/10 01:13:56;;;;;;;7.75;4.50;;;;;;;16.13;100.00;97882.16;5113151;28;20027;-73
2023/07/10 01:16:23;;;;;;;7.15;4.60;;;;;;;16.23;100.00;97887.69;5103094;28;20089;-73
2023/07/10 01:18:49;;;;;;;6.28;4.32;;;;;;;16.21;100.00;97895.91;5109719;28;20537;-73
2023/07/10 01:21:25;;;;;;;9.35;4.85;;;;;;;16.23;100.00;97890.41;5126433;28;20018;-74
2023/07/10 01:23:51;;;;;;;8.10;5.05;;;;;;;16.19;100.00;97892.47;5127180;28;20493;-74
2023/07/10 01:26:17;;;;;;;6.75;4.38;;;;;;;16.23;100.00;97902.06;5130076;28;20097;-73
2023/07/10 01:28:42;;;;;;;8.95;4.70;;;;;;;16.22;100.00;97896.78;5131050;27;20130;-73
2023/07/10 01:31:09;;;;;;;7.57;4.82;;;;;;;16.20;100.00;97901.44;5116482;27;20508;-73
2023/07/10 01:33:39;;;;;;;6.78;4.72;;;;;;;16.20;100.00;97912.25;5133916;27;20023;-73
2023/07/10 01:36:05;;;;;;;9.52;4.45;;;;;;;16.18;100.00;97912.34;5116512;27;20019;-74
2023/07/10 01:38:35;;;;;;;10.02;4.35;;;;;;;16.18;100.00;97915.03;5133778;27;20027;-73
2023/07/10 01:41:07;;;;;;;8.88;4.20;;;;;;;16.16;100.00;97902.66;5133670;27;20050;-73
2023/07/10 01:43:32;;;;;;;14.45;4.82;;;;;;;16.10;100.00;97897.72;5116477;27;20046;-73
2023/07/10 01:45:58;;;;;;;12.68;4.95;;;;;;;16.08;100.00;97905.09;5116109;27;20122;-73
2023/07/10 01:48:26;;;;;;;9.48;4.95;;;;;;;16.02;100.00;97900.19;5116192;27;20027;-74
2023/07/10 01:50:52;;;;;;;5.85;4.38;;;;;;;15.92;100.00;97909.97;5134867;27;20058;-73
2023/07/10 01:53:18;;;;;;;8.90;4.90;;;;;;;15.87;100.00;97909.47;5133439;27;20019;-73
2023/07/10 01:55:45;;;;;;;10.82;4.60;;;;;;;15.93;100.00;97914.41;5134762;27;20145;-73
2023/07/10 01:58:11;;;;;;;10.18;4.90;;;;;;;15.87;100.00;97912.19;5133263;27;20037;-73
2023/07/10 02:00:37;;;;;;;8.73;5.10;;;;;;;15.89;100.00;97919.16;5133319;27;20023;-73
2023/07/10 02:03:03;;;;;;;8.23;4.90;;;;;;;15.97;100.00;97915.84;5134626;27;20095;-74
2023/07/10 02:05:29;;;;;;;5.60;4.32;;;;;;;15.99;100.00;97913.91;5115901;27;20031;-74
2023/07/10 02:07:54;;;;;;;7.13;4.95;;;;;;;16.05;100.00;97922.41;5133254;27;20486;-73
2023/07/10 02:10:19;;;;;;;11.38;5.18;;;;;;;16.01;100.00;97918.22;5132881;27;20024;-73
2023/07/10 02:12:45;;;;;;;10.52;5.35;;;;;;;15.96;100.00;97919.56;5133334;27;20031;-73
2023/07/10 02:15:10;;;;;;;7.25;5.43;;;;;;;15.98;100.00;97912.19;5098301;28;20057;-73
2023/07/10 02:17:36;;;;;;;9.85;5.72;;;;;;;15.95;100.00;97918.69;5113817;28;20035;-73
2023/07/10 02:20:02;;;;;;;10.95;4.70;;;;;;;15.94;100.00;97925.06;5129956;27;20447;-73
2023/07/10 02:22:28;;;;;;;12.27;5.20;;;;;;;15.89;100.00;97918.31;5133005;27;20040;-73
2023/07/10 02:24:53;;;;;;;10.80;5.22;;;;;;;15.85;100.00;97916.81;5128326;27;20114;-73
2023/07/10 02:27:18;;;;;;;9.85;5.32;;;;;;;15.90;100.00;97926.28;5113369;28;20461;-73
2023/07/10 02:29:44;;;;;;;7.57;4.55;;;;;;;15.87;100.00;97914.88;5131194;27;20029;-73
2023/07/10 02:32:09;;;;;;;11.52;4.95;;;;;;;15.82;100.00;97919.75;5132789;27;20076;-73
2023/07/10 02:34:35;;;;;;;8.13;5.38;;;;;;;15.87;100.00;97931.06;5129329;27;20035;-73
2023/07/10 02:37:00;;;;;;;8.13;4.60;;;;;;;15.81;100.00;97929.66;5113447;28;20440;-73
2023/07/10 02:39:26;;;;;;;6.28;4.90;;;;;;;15.70;100.00;97925.13;5112810;28;20031;-73
2023/07/10 02:41:51;;;;;;;13.05;5.82;;;;;;;15.65;100.00;97926.44;5113229;28;20027;-73
2023/07/10 02:44:17;;;;;;;13.23;5.40;;;;;;;15.64;100.00;97922.03;5113042;28;20047;-73
2023/07/10 02:46:42;;;;;;;8.73;5.22;;;;;;;15.63;100.00;97917.59;5130391;27;20101;-73
2023/07/10 02:49:08;;;;;;;11.45;5.00;;;;;;;15.62;100.00;97924.84;5115323;27;20064;-73
2023/07/10 02:51:33;;;;;;;6.35;4.88;;;;;;;15.59;100.00;97921.53;5131991;27;20471;-73
2023/07/10 02:54:08;;;;;;;7.20;5.35;;;;;;;15.55;100.00;97928.13;5133587;27;20038;-73
2023/07/10 02:56:34;;;;;;;7.45;5.13;;;;;;;15.53;100.00;97935.47;5115395;27;20391;-73
2023/07/10 02:58:59;;;;;;;10.60;5.53;;;;;;;15.54;100.00;97935.34;5132055;27;20027;-73
2023/07/10 03:01:26;;;;;;;7.57;4.97;;;;;;;15.59;100.00;97943.09;5133730;27;20051;-74
2023/07/10 03:03:51;;;;;;;10.95;6.47;;;;;;;15.53;100.00;97944.44;5132132;27;20030;-74
2023/07/10 03:06:17;;;;;;;10.38;6.35;;;;;;;15.53;100.00;97944.44;5115094;27;20019;-73
2023/07/10 03:08:43;;;;;;;9.18;6.55;;;;;;;15.53;100.00;97933.63;5131855;27;20501;-73
2023/07/10 03:11:12;;;;;;;13.00;7.25;;;;;;;15.51;100.00;97940.97;5131953;27;20107;-73
2023/07/10 03:13:37;;;;;;;8.07;5.50;;;;;;;15.48;100.00;97943.03;5133087;27;20110;-74
2023/07/10 03:16:08;;;;;;;8.05;5.25;;;;;;;15.47;100.00;97933.22;5132933;27;20106;-73
2023/07/10 03:18:33;;;;;;;7.78;5.60;;;;;;;15.42;100.00;97936.22;5132009;27;20019;-73
2023/07/10 03:20:59;;;;;;;10.93;4.78;;;;;;;15.47;100.00;97939.47;5132869;27;20023;-74
2023/07/10 03:23:25;;;;;;;7.55;4.78;;;;;;;15.52;100.00;97948.09;5132009;27;20490;-73
2023/07/10 03:25:50;;;;;;;8.80;5.50;;;;;;;15.60;100.00;97945.66;5114749;27;20402;-74
2023/07/10 03:28:16;;;;;;;14.60;5.90;;;;;;;15.68;100.00;97945.97;5131523;27;20398;-78
2023/07/10 03:30:42;;;;;;;12.43;5.15;;;;;;;15.66;100.00;97950.59;5107787;28;20036;-78
2023/07/10 03:33:08;;;;;;;19.27;7.20;;;;;;;15.70;100.00;97953.91;5111047;28;20115;-77
2023/07/10 03:35:34;;;;;;;18.88;7.70;;;;;;;15.84;100.00;97959.13;5109447;27;20479;-77
2023/07/10 03:37:59;;;;;;;22.15;8.75;;;;;;;15.96;100.00;97960.03;5131356;27;20040;-77
2023/07/10 03:40:25;;;;;;;26.25;9.02;;;;;;;15.97;100.00;97964.44;5114392;27;20027;-78
2023/07/10 03:42:50;;;;;;;20.05;7.43;;;;;;;15.93;100.00;97955.75;5131521;27;20031;-78
2023/07/10 03:45:16;;;;;;;15.60;6.78;;;;;;;16.00;100.00;97951.56;5131166;27;20408;-78
2023/07/10 03:47:41;;;;;;;10.90;5.95;;;;;;;16.09;100.00;97958.09;5122951;27;20437;-77
2023/07/10 03:50:09;;;;;;;8.95;6.15;;;;;;;16.12;100.00;97963.25;5093395;28;20042;-77
2023/07/10 03:52:34;;;;;;;8.90;5.40;;;;;;;16.12;100.00;97952.44;5125033;27;20023;-77
2023/07/10 03:55:00;;;;;;;9.48;5.53;;;;;;;16.13;100.00;97956.88;5113745;27;20552;-77
2023/07/10 03:57:26;;;;;;;9.50;5.72;;;;;;;16.16;100.00;97957.50;5130662;27;20023;-77
2023/07/10 03:59:52;;;;;;;12.10;5.80;;;;;;;16.22;100.00;97964.25;5130854;27;20027;-77
2023/07/10 04:02:17;;;;;;;7.72;5.68;;;;;;;16.35;100.00;97959.63;5123564;27;20023;-77
2023/07/10 04:04:43;;;;;;;12.10;6.05;;;;;;;16.36;100.00;97955.94;5130675;27;20100;-76
2023/07/10 04:07:08;;;;;;;10.32;5.90;;;;;;;16.45;100.00;97960.63;5113499;27;20486;-76
2023/07/10 04:09:34;;;;;;;8.45;5.80;;;;;;;16.56;100.00;97963.34;5131017;27;20088;-73
2023/07/10 04:11:59;;;;;;;9.63;6.00;;;;;;;16.58;100.00;97971.34;5131880;27;20468;-75
2023/07/10 04:14:25;;;;;;;13.93;6.50;;;;;;;16.73;100.00;97970.13;5131895;27;20023;-80
2023/07/10 04:16:53;;;;;;;12.43;6.40;;;;;;;16.76;100.00;97968.00;5107146;27;20031;-81
2023/07/10 04:19:20;;;;;;;10.57;5.57;;;;;;;16.72;100.00;97963.88;5103008;27;20031;-76
2023/07/10 04:21:45;;;;;;;10.75;6.07;;;;;;;16.65;100.00;97965.31;5111353;27;20026;-80
2023/07/10 04:24:12;;;;;;;14.27;6.05;;;;;;;16.68;100.00;97973.19;5110178;27;20053;-80
2023/07/10 04:26:37;;;;;;;9.18;6.40;;;;;;;16.71;100.00;97972.06;5104967;27;20031;-78
2023/07/10 04:29:05;;;;;;;22.98;8.77;;;;;;;16.79;100.00;97970.50;5094356;28;20072;-76
2023/07/10 04:31:32;;;;;;;12.05;6.15;;;;;;;16.96;100.00;97979.94;5108607;28;20612;-76
2023/07/10 04:33:58;;;;;;;9.80;6.07;;;;;;;17.08;100.00;97972.66;5124185;27;20083;-77
2023/07/10 04:36:23;;;;;;;15.88;6.78;;;;;;;17.15;100.00;97963.09;5099203;28;20027;-77
2023/07/10 04:38:49;;;;;;;17.48;6.97;;;;;;;17.29;100.00;97963.66;5118636;27;20051;-77
2023/07/10 04:41:21;;;;;;;8.90;5.72;;;;;;;17.47;100.00;97961.31;5109801;27;20016;-78
2023/07/10 04:43:47;;;;;;;8.13;5.33;;;;;;;17.61;100.00;97961.03;5126210;28;20706;-78
2023/07/10 04:46:14;;;;;;;8.85;5.68;;;;;;;17.63;100.00;97963.59;5129298;27;20291;-72
2023/07/10 04:48:39;;;;;;;8.70;5.35;;;;;;;17.67;100.00;97963.22;5109791;28;20040;-73
2023/07/10 04:51:07;;;;;;;15.75;5.95;;;;;;;17.82;100.00;97961.94;5102841;28;20023;-72
2023/07/10 04:53:33;;;;;;;15.20;6.10;;;;;;;17.91;100.00;97957.59;5126611;28;20027;-72
2023/07/10 04:56:01;;;;;;;17.80;7.00;;;;;;;18.36;100.00;97963.63;5127165;28;20137;-72
2023/07/10 04:58:28;;;;;;;23.52;8.05;;;;;;;19.24;100.00;97964.75;5091910;28;20055;-72
2023/07/10 05:00:58;;;;;;;9.88;5.90;;;;;;;19.58;100.00;97940.00;5126431;28;20549;-73
2023/07/10 05:03:25;;;;;;;11.90;6.65;;;;;;;20.25;100.00;97938.13;5129232;27;20023;-73
2023/07/10 05:05:55;;;;;;;17.80;10.35;;;;;;;20.84;100.00;97943.31;5132649;27;20057;-73
2023/07/10 05:08:23;;;;;;;26.85;8.30;;;;;;;22.46;100.00;97936.88;5131471;27;20054;-75
2023/07/10 05:10:50;;;;;;;15.48;7.53;;;;;;;23.87;100.00;97930.72;5123051;27;20080;-73
2023/07/10 05:13:19;;;;;;;11.27;6.28;;;;;;;25.01;100.00;97929.69;5116698;27;20123;-74
2023/07/10 05:15:46;;;;;;;16.25;7.85;;;;;;;25.55;100.00;97913.41;5128026;27;20565;-80
2023/07/10 05:18:12;;;;;;;15.30;5.57;;;;;;;25.35;100.00;97926.63;5109709;27;20558;-80
2023/07/10 05:20:38;;;;;;;24.67;6.75;;;;;;;26.32;100.00;97926.94;5131503;27;20034;-79
2023/07/10 05:23:04;;;;;;;9.55;5.72;;;;;;;26.27;100.00;97937.59;5129855;27;20031;-74
2023/07/10 05:25:29;;;;;;;22.58;14.93;;;;;;;25.36;100.00;97942.06;5113814;27;20033;-74
2023/07/10 05:27:55;;;;;;;13.07;8.63;;;;;;;25.32;100.00;97947.03;5132426;27;20027;-73
2023/07/10 05:30:20;;;;;;;14.13;6.93;;;;;;;26.17;100.00;97938.91;5130913;27;20027;-74
2023/07/10 05:32:46;;;;;;;13.30;5.93;;;;;;;26.48;97.58;97939.66;5113656;27;20039;-73
2023/07/10 05:35:11;;;;;;;22.02;9.65;;;;;;;27.21;93.37;97930.69;5116016;27;20494;-74
2023/07/10 05:37:37;;;;;;;28.15;10.30;;;;;;;27.72;90.28;97926.06;5123076;27;20027;-77
2023/07/10 05:40:03;;;;;;;12.23;7.22;;;;;;;27.45;89.80;97925.75;5131090;27;20368;-76
2023/07/10 05:42:28;;;;;;;10.23;5.88;;;;;;;28.27;89.08;97926.28;5131247;27;20116;-76
2023/07/10 05:44:54;;;;;;;17.98;7.38;;;;;;;28.29;85.27;97926.97;5121634;27;20047;-77
2023/07/10 05:47:19;;;;;;;8.77;5.18;;;;;;;27.84;84.91;97922.63;5127528;27;20475;-78
2023/07/10 05:49:45;;;;;;;11.10;5.35;;;;;;;27.39;88.82;97931.13;5130614;27;20031;-78
2023/07/10 05:52:11;;;;;;;13.13;8.23;;;;;;;27.83;86.03;97917.34;5114617;27;20029;-77
2023/07/10 05:54:36;;;;;;;34.67;21.92;;;;;;;27.38;92.15;97932.16;5129392;27;20039;-77
2023/07/10 05:57:02;;;;;;;21.13;5.97;;;;;;;27.81;86.59;97933.19;5130777;27;20462;-78
2023/07/10 05:59:27;;;;;;;15.95;7.68;;;;;;;26.76;92.57;97934.44;5132089;27;20023;-77
2023/07/10 06:01:53;;;;;;;15.40;5.60;;;;;;;27.16;92.22;97942.25;5130593;27;20454;-77
2023/07/10 06:04:19;;;;;;;13.98;6.45;;;;;;;28.05;85.22;97927.38;5125399;27;20099;-77
2023/07/10 06:06:45;;;;;;;17.13;6.97;;;;;;;28.79;81.25;97934.22;5118585;27;20036;-77
2023/07/10 06:09:11;;;;;;;14.98;6.10;;;;;;;29.14;77.75;97928.72;5117888;27;20055;-78
2023/07/10 06:11:37;;;;;;;13.40;6.80;;;;;;;28.20;81.10;97928.16;5130812;27;20410;-77
2023/07/10 06:14:03;;;;;;;15.65;6.80;;;;;;;29.08;78.16;97935.03;5112823;27;20076;-77
2023/07/10 06:16:28;;;;;;;17.92;7.20;;;;;;;29.50;74.00;97919.19;5115942;27;20466;-78
2023/07/10 06:18:56;;;;;;;11.05;6.18;;;;;;;28.47;78.89;97918.22;5131623;27;20402;-77
2023/07/10 06:21:22;;;;;;;10.32;5.63;;;;;;;28.58;80.86;97925.13;5126858;27;20522;-77
2023/07/10 06:23:47;;;;;;;14.88;9.73;;;;;;;29.55;73.64;97916.69;5129131;27;20082;-77
2023/07/10 06:26:13;;;;;;;13.52;9.80;;;;;;;30.27;69.70;97921.56;5120043;27;20096;-78
2023/07/10 06:28:39;;;;;;;16.65;11.82;;;;;;;30.52;67.74;97925.47;5127306;27;20097;-76
2023/07/10 06:31:07;;;;;;;13.35;5.28;;;;;;;30.48;64.92;97918.69;5124608;27;20027;-77
2023/07/10 06:33:33;;;;;;;44.45;24.70;;;;;;;30.08;67.52;97925.16;5130037;27;20039;-77
2023/07/10 06:35:59;;;;;;;17.40;8.30;;;;;;;29.98;67.12;97921.94;5119319;27;20495;-78
2023/07/10 06:38:25;;;;;;;13.23;5.60;;;;;;;29.84;68.24;97936.78;5128031;27;20361;-77
2023/07/10 06:40:51;;;;;;;10.75;4.68;;;;;;;30.44;63.77;97931.22;5119425;27;20056;-77
2023/07/10 06:43:18;;;;;;;15.02;5.55;;;;;;;31.00;60.77;97922.50;5126514;27;20039;-78
2023/07/10 06:45:44;;;;;;;11.30;5.60;;;;;;;31.84;57.79;97919.72;5129824;27;20043;-77
2023/07/10 06:48:09;;;;;;;13.95;5.78;;;;;;;32.28;55.79;97911.38;5125285;27;20514;-78
2023/07/10 06:50:35;;;;;;;18.77;5.63;;;;;;;32.18;54.81;97911.03;5118394;27;20031;-78
2023/07/10 06:53:01;;;;;;;18.05;5.10;;;;;;;31.25;57.40;97914.38;5123879;27;20028;-78
2023/07/10 06:55:27;;;;;;;10.65;5.05;;;;;;;31.28;58.47;97923.09;5109330;28;20032;-77
2023/07/10 06:57:52;;;;;;;8.45;5.18;;;;;;;31.23;57.96;97922.03;5117579;27;20106;-77
2023/07/10 07:00:19;;;;;;;6.85;4.53;;;;;;;31.35;58.73;97917.56;5122078;27;20471;-77
2023/07/10 07:02:44;;;;;;;8.15;4.63;;;;;;;31.32;56.63;97906.91;5124482;27;20062;-77
2023/07/10 07:05:10;;;;;;;9.10;4.57;;;;;;;32.11;52.99;97896.41;5124467;27;20565;-77
2023/07/10 07:07:37;;;;;;;7.95;4.43;;;;;;;32.58;51.49;97898.63;5099570;27;20032;-75
2023/07/10 07:10:03;;;;;;;31.77;5.22;;;;;;;32.74;52.77;97895.28;5093957;28;20027;-75
2023/07/10 07:12:29;;;;;;;7.13;5.07;;;;;;;33.10;52.04;97890.94;5116017;27;20050;-76
2023/07/10 07:14:54;;;;;;;15.40;5.10;;;;;;;34.13;49.35;97895.44;5111946;27;20502;-77
2023/07/10 07:17:20;;;;;;;8.07;4.35;;;;;;;33.90;47.96;97894.47;5128902;27;20034;-77
2023/07/10 07:19:46;;;;;;;15.75;5.88;;;;;;;34.49;47.23;97888.91;5130023;27;20189;-76
2023/07/10 07:22:13;;;;;;;18.83;5.90;;;;;;;34.77;46.40;97886.31;5128833;27;20072;-76
2023/07/10 07:24:38;;;;;;;8.10;4.55;;;;;;;34.99;44.75;97886.56;5111674;27;20130;-76
2023/07/10 07:27:04;;;;;;;11.07;3.80;;;;;;;35.83;41.50;97874.03;5127822;27;20117;-77
2023/07/10 07:29:30;;;;;;;21.77;4.82;;;;;;;36.84;41.59;97876.78;5111451;27;20034;-77
2023/07/10 07:31:55;;;;;;;14.75;4.97;;;;;;;36.32;39.76;97873.34;5128670;27;20189;-77
2023/07/10 07:34:21;;;;;;;5.25;4.75;;;;;;;37.19;41.39;97884.06;5111537;27;20103;-77
2023/07/10 07:36:51;;;;;;;9.18;4.88;;;;;;;37.58;38.88;97869.00;5128628;27;20087;-77
2023/07/10 07:39:17;;;;;;;11.70;3.95;;;;;;;36.69;39.06;97870.97;5111089;27;20410;-77
2023/07/10 07:41:43;;;;;;;8.20;4.03;;;;;;;36.54;40.21;97872.63;5111232;27;20122;-77
2023/07/10 07:44:09;;;;;;;11.13;4.30;;;;;;;36.05;39.75;97869.50;5128186;27;20495;-77
2023/07/10 07:46:34;;;;;;;11.00;3.90;;;;;;;36.40;39.79;97872.06;5128403;27;20026;-77
2023/07/10 07:49:00;;;;;;;8.40;4.10;;;;;;;36.90;38.64;97859.03;5128405;27;20045;-77
2023/07/10 07:51:25;;;;;;;18.95;7.03;;;;;;;36.30;38.64;97860.75;5128094;27;20572;-77
2023/07/10 07:54:09;;;;;;;6.72;4.10;;;;;;;36.92;37.88;97862.41;5128091;27;20038;-77
2023/07/10 07:56:34;;;;;;;6.70;4.57;;;;;;;38.11;36.52;97853.44;5128720;27;20452;-77
2023/07/10 07:59:00;;;;;;;23.13;4.53;;;;;;;38.17;35.75;97852.41;5127996;27;20075;-78
2023/07/10 08:01:25;;;;;;;9.80;4.68;;;;;;;36.60;37.26;97850.16;5128296;27;20486;-77
2023/07/10 08:03:51;;;;;;;20.55;4.53;;;;;;;36.73;37.52;97858.16;5120662;27;20042;-77
2023/07/10 08:06:16;;;;;;;21.38;4.40;;;;;;;36.88;37.47;97841.72;5127347;27;20019;-77
2023/07/10 08:08:42;;;;;;;7.38;4.07;;;;;;;37.52;36.26;97839.31;5128226;27;20072;-77
2023/07/10 08:11:08;;;;;;;7.38;3.63;;;;;;;37.14;37.15;97837.34;5128194;27;20028;-77
2023/07/10 08:13:34;;;;;;;7.20;3.75;;;;;;;36.92;37.48;97848.44;5111208;27;20615;-77
2023/07/10 08:15:59;;;;;;;6.70;4.07;;;;;;;37.27;36.44;97836.16;5118508;27;20039;-76
2023/07/10 08:18:25;;;;;;;4.35;3.40;;;;;;;37.05;36.40;97840.84;5130312;27;20363;-76
2023/07/10 08:20:51;;;;;;;3.92;3.50;;;;;;;37.84;35.41;97834.66;5112616;27;20480;-77
2023/07/10 08:23:16;;;;;;;5.10;3.60;;;;;;;38.20;34.84;97832.28;5130791;27;20029;-77
2023/07/10 08:25:42;;;;;;;4.45;3.85;;;;;;;38.03;34.73;97824.00;5113678;27;20458;-77
2023/07/10 08:28:07;;;;;;;8.30;3.60;;;;;;;38.30;34.81;97827.63;5113395;27;20034;-77
2023/07/10 08:30:33;;;;;;;4.93;3.67;;;;;;;39.24;33.18;97824.25;5125261;27;20420;-77
2023/07/10 08:32:58;;;;;;;3.65;3.33;;;;;;;39.56;32.25;97827.78;5130801;27;20027;-77
2023/07/10 08:35:24;;;;;;;5.22;3.63;;;;;;;39.72;32.38;97823.09;5131755;27;20099;-77
2023/07/10 08:37:50;;;;;;;3.75;3.42;;;;;;;40.06;32.43;97821.50;5130197;27;20106;-77
2023/07/10 08:40:21;;;;;;;5.00;3.45;;;;;;;39.04;33.54;97825.78;5113797;27;20019;-77
2023/07/10 08:42:47;;;;;;;5.35;3.45;;;;;;;37.93;34.97;97818.34;5130510;27;20546;-77
2023/07/10 08:45:16;;;;;;;4.10;3.67;;;;;;;37.30;35.27;97821.66;5112999;28;20121;-77
2023/07/10 08:47:48;;;;;;;4.72;3.40;;;;;;;36.34;36.45;97828.47;5130634;27;20019;-76
2023/07/10 08:50:30;;;;;;;8.82;3.58;;;;;;;34.99;38.94;97827.31;5130295;27;20023;-76
2023/07/10 08:53:12;;;;;;;17.52;10.35;;;;;;;34.48;40.91;97842.75;5130358;27;20031;-76
2023/07/10 08:55:48;;;;;;;4.78;3.60;;;;;;;35.98;38.27;97842.84;5130240;27;20027;-76
2023/07/10 08:58:23;;;;;;;11.75;4.72;;;;;;;37.03;36.85;97835.53;5130325;27;20023;-76
2023/07/10 09:00:51;;;;;;;5.38;3.40;;;;;;;37.98;35.14;97827.59;5131745;27;20016;-77
2023/07/10 09:03:21;;;;;;;4.13;3.60;;;;;;;37.97;34.78;97830.66;5112945;28;20034;-77
2023/07/10 09:05:50;;;;;;;4.35;3.60;;;;;;;38.11;34.91;97833.88;5130418;27;20066;-77
2023/07/10 09:08:16;;;;;;;4.00;3.58;;;;;;;39.10;33.97;97834.22;5130291;27;20115;-78
2023/07/10 09:10:54;;;;;;;6.03;3.40;;;;;;;39.79;32.74;97823.69;5130208;27;20031;-78
2023/07/10 09:13:33;;;;;;;5.85;3.50;;;;;;;40.10;32.41;97825.50;5109902;28;20023;-78
2023/07/10 09:16:01;;;;;;;9.15;4.03;;;;;;;40.12;32.56;97814.00;5110296;28;20042;-77
2023/07/10 09:18:53;;;;;;;7.72;3.53;;;;;;;40.93;31.32;97804.53;5129991;27;20449;-78
2023/07/10 09:21:22;;;;;;;5.95;3.25;;;;;;;41.43;30.34;97803.59;5131149;27;20008;-78
2023/07/10 09:23:48;;;;;;;4.72;3.40;;;;;;;41.52;30.42;97795.38;5113106;28;20098;-77
2023/07/10 09:26:20;;;;;;;6.43;4.97;;;;;;;41.56;30.13;97791.69;5112804;28;20482;-77
2023/07/10 09:28:57;;;;;;;4.50;3.67;;;;;;;42.18;29.87;97798.72;5087077;28;20032;-77
2023/07/10 09:31:47;;;;;;;5.38;3.15;;;;;;;42.48;28.95;97792.88;5109481;28;20027;-78
2023/07/10 09:34:13;;;;;;;3.67;3.30;;;;;;;42.89;29.11;97793.38;5110735;28;20483;-78
2023/07/10 09:36:38;;;;;;;8.68;3.17;;;;;;;41.88;29.97;97784.81;5110931;28;20019;-78
2023/07/10 09:39:04;;;;;;;23.58;5.35;;;;;;;42.02;29.05;97785.88;5125031;28;20019;-79
2023/07/10 09:41:30;;;;;;;6.78;3.58;;;;;;;41.20;30.03;97775.22;5121519;27;20120;-79
2023/07/10 09:44:20;;;;;;;3.95;3.55;;;;;;;41.93;29.39;97779.19;5108520;28;20027;-78
2023/07/10 09:46:46;;;;;;;5.82;3.83;;;;;;;41.10;29.84;97781.75;5129988;27;20041;-79
2023/07/10 09:49:15;;;;;;;6.43;3.35;;;;;;;41.09;29.93;97782.88;5113012;28;20517;-78
2023/07/10 09:52:01;;;;;;;12.45;3.45;;;;;;;39.90;30.14;97772.97;5133859;27;20035;-78
2023/07/10 09:54:38;;;;;;;6.45;3.80;;;;;;;37.68;32.64;97776.97;5133515;27;20023;-77
2023/07/10 09:57:11;;;;;;;5.97;3.50;;;;;;;37.36;33.42;97781.53;5133680;27;20023;-78
2023/07/10 09:59:37;;;;;;;5.63;3.35;;;;;;;37.69;33.48;97773.03;5116108;27;20481;-78
2023/07/10 10:02:20;;;;;;;4.97;3.22;;;;;;;38.57;33.04;97774.50;5133460;27;20454;-79
2023/07/10 10:05:14;;;;;;;5.45;3.33;;;;;;;37.61;34.44;97770.72;5133680;27;20618;-78
2023/07/10 10:07:50;;;;;;;5.65;3.10;;;;;;;37.99;34.34;97772.56;5126928;27;20398;-79
2023/07/10 10:10:29;;;;;;;7.47;3.72;;;;;;;39.21;32.73;97775.19;5133279;27;20470;-79
2023/07/10 10:13:02;;;;;;;4.72;3.30;;;;;;;39.74;31.18;97757.25;5116117;27;20023;-80
2023/07/10 10:15:51;;;;;;;6.45;3.40;;;;;;;40.42;31.47;97764.38;5130637;27;20510;-79
2023/07/10 10:18:46;;;;;;;5.30;4.00;;;;;;;39.84;30.80;97748.03;5130702;27;20019;-79
2023/07/10 10:21:14;;;;;;;14.00;3.80;;;;;;;40.65;30.41;97751.75;5133183;27;20072;-79
2023/07/10 10:23:42;;;;;;;6.30;3.50;;;;;;;39.11;31.26;97735.09;5133049;27;20023;-79
2023/07/10 10:26:46;;;;;;;8.18;3.50;;;;;;;37.19;33.42;97744.50;5132954;27;20015;-79
2023/07/10 10:29:27;;;;;;;8.50;3.38;;;;;;;36.64;34.79;97736.16;5132964;27;20102;-79
2023/07/10 10:31:58;;;;;;;6.35;4.30;;;;;;;35.36;36.96;97748.00;5134061;27;20038;-79
2023/07/10 10:34:44;;;;;;;6.68;3.80;;;;;;;34.91;37.62;97750.66;5133029;27;20050;-79
2023/07/10 10:37:24;;;;;;;5.95;4.13;;;;;;;35.60;37.52;97746.84;5115607;27;20035;-79
2023/07/10 10:40:33;;;;;;;7.47;4.40;;;;;;;37.82;34.10;97744.69;5132537;27;20026;-79
2023/07/10 10:43:36;;;;;;;6.18;3.90;;;;;;;38.63;32.92;97734.25;5132143;27;20179;-80
2023/07/10 10:46:44;;;;;;;7.88;3.22;;;;;;;39.32;31.53;97736.91;5123139;27;20046;-81
2023/07/10 10:50:01;;;;;;;;;;;;;;;;;;;;;
2023/07/10 10:52:42;;;;;;;21.98;7.53;;;;;;;39.31;31.23;97712.84;5132571;27;20121;-80
2023/07/10 10:55:52;;;;;;;7.63;4.45;;;;;;;40.72;30.63;97740.25;5136926;27;20122;-79
2023/07/10 10:58:36;;;;;;;8.20;3.78;;;;;;;41.40;29.09;97730.25;5105920;27;20035;-80
2023/07/10 11:01:19;;;;;;;9.55;3.97;;;;;;;41.69;27.81;97722.78;5131818;27;20019;-79
2023/07/10 11:03:54;;;;;;;3.08;2.83;;;;;;;42.67;26.42;97722.66;5114996;27;20038;-79
2023/07/10 11:06:33;;;;;;;9.65;3.78;;;;;;;43.39;25.46;97703.81;5132491;27;20055;-77
2023/07/10 11:09:09;;;;;;;10.93;3.45;;;;;;;42.22;26.50;97707.00;5133179;27;20473;-80
2023/07/10 11:11:37;;;;;;;6.45;3.40;;;;;;;42.15;27.07;97704.47;5132142;27;20487;-79
2023/07/10 11:14:04;;;;;;;8.23;4.10;;;;;;;41.43;27.67;97701.56;5094803;28;20085;-78
2023/07/10 11:16:31;;;;;;;4.65;3.10;;;;;;;40.17;28.22;97701.84;5101270;27;20398;-79
2023/07/10 11:18:57;;;;;;;6.00;3.13;;;;;;;39.34;29.26;97703.88;5114654;27;20035;-79
2023/07/10 11:21:23;;;;;;;7.80;3.95;;;;;;;38.34;31.14;97710.50;5133041;27;20019;-78
2023/07/10 11:23:50;;;;;;;7.13;3.30;;;;;;;39.04;28.95;97702.59;5114616;27;20115;-78
2023/07/10 11:26:26;;;;;;;19.08;3.83;;;;;;;39.93;28.96;97704.31;5131858;27;20031;-79
2023/07/10 11:28:57;;;;;;;12.18;3.83;;;;;;;40.92;27.26;97693.28;5114238;27;20023;-79
2023/07/10 11:31:25;;;;;;;;;;;;;;;40.44;26.36;97688.34;5132064;27;20023;-79
2023/07/10 11:34:18;;;;;;;7.88;4.35;;;;;;;41.08;26.86;97689.34;5131600;27;20005;-79
2023/07/10 11:36:58;;;;;;;15.52;3.30;;;;;;;41.38;25.49;97676.34;5100516;27;20042;-79